sensor_id;sensor_type;location;lat;lon;timestamp;P1;durP1;ratioP1;P2;durP2;ratioP2
8831;SDS011;4452;50.756;4.472;2024-01-15T00:02:08;40.92;;;16.08;;
8831;SDS011;4452;50.756;4.472;2024-01-15T00:04:38;51.97;;;19.05;;
8831;SDS011;4452;50.756;4.472;2024-01-15T00:07:04;29.42;;;13.35;;
8831;SDS011;4452;50.756;4.472;2024-01-15T00:09:31;29.48;;;14.23;;
8831;SDS011;4452;50.756;4.472;2024-01-15T00:11:56;45.10;;;16.98;;
8831;SDS011;4452;50.756;4.472;2024-01-15T00:14:22;31.23;;;13.48;;
8831;SDS011;4452;50.756;4.472;2024-01-15T00:16:48;36.42;;;14.95;;
8831;SDS011;4452;50.756;4.472;2024-01-15T00:19:16;34.08;;;15.00;;
8831;SDS011;4452;50.756;4.472;2024-01-15T00:21:44;35.67;;;16.58;;
8831;SDS011;4452;50.756;4.472;2024-01-15T00:24:10;34.58;;;12.43;;
8831;SDS011;4452;50.756;4.472;2024-01-15T00:26:36;25.75;;;11.10;;
8831;SDS011;4452;50.756;4.472;2024-01-15T00:29:02;26.95;;;14.90;;
8831;SDS011;4452;50.756;4.472;2024-01-15T00:31:28;32.92;;;15.25;;
8831;SDS011;4452;50.756;4.472;2024-01-15T00:33:55;30.35;;;12.63;;
8831;SDS011;4452;50.756;4.472;2024-01-15T00:36:20;29.95;;;13.80;;
8831;SDS011;4452;50.756;4.472;2024-01-15T00:38:46;44.30;;;15.32;;
8831;SDS011;4452;50.756;4.472;2024-01-15T00:41:13;26.23;;;11.13;;
8831;SDS011;4452;50.756;4.472;2024-01-15T00:43:39;24.60;;;9.57;;
8831;SDS011;4452;50.756;4.472;2024-01-15T00:46:04;28.98;;;12.10;;
8831;SDS011;4452;50.756;4.472;2024-01-15T00:48:30;21.75;;;12.07;;
8831;SDS011;4452;50.756;4.472;2024-01-15T00:50:56;22.35;;;11.13;;
8831;SDS011;4452;50.756;4.472;2024-01-15T00:53:22;15.77;;;8.50;;
8831;SDS011;4452;50.756;4.472;2024-01-15T00:55:48;27.20;;;13.07;;
8831;SDS011;4452;50.756;4.472;2024-01-15T00:58:14;30.85;;;14.15;;
8831;SDS011;4452;50.756;4.472;2024-01-15T01:00:40;20.60;;;11.13;;
8831;SDS011;4452;50.756;4.472;2024-01-15T01:03:06;24.05;;;11.63;;
8831;SDS011;4452;50.756;4.472;2024-01-15T01:05:31;24.52;;;12.55;;
8831;SDS011;4452;50.756;4.472;2024-01-15T01:07:58;29.05;;;11.93;;
8831;SDS011;4452;50.756;4.472;2024-01-15T01:10:23;24.00;;;12.48;;
8831;SDS011;4452;50.756;4.472;2024-01-15T01:12:49;26.77;;;13.32;;
8831;SDS011;4452;50.756;4.472;2024-01-15T01:15:15;28.25;;;12.15;;
8831;SDS011;4452;50.756;4.472;2024-01-15T01:17:40;28.40;;;12.68;;
8831;SDS011;4452;50.756;4.472;2024-01-15T01:20:06;18.08;;;9.70;;
8831;SDS011;4452;50.756;4.472;2024-01-15T01:22:34;28.73;;;12.88;;
8831;SDS011;4452;50.756;4.472;2024-01-15T01:25:00;29.85;;;12.25;;
8831;SDS011;4452;50.756;4.472;2024-01-15T01:27:26;35.72;;;15.02;;
8831;SDS011;4452;50.756;4.472;2024-01-15T01:29:51;29.95;;;12.13;;
8831;SDS011;4452;50.756;4.472;2024-01-15T01:32:17;27.65;;;13.48;;
8831;SDS011;4452;50.756;4.472;2024-01-15T01:34:43;20.42;;;10.75;;
8831;SDS011;4452;50.756;4.472;2024-01-15T01:37:09;20.23;;;10.43;;
8831;SDS011;4452;50.756;4.472;2024-01-15T01:39:37;30.10;;;14.32;;
8831;SDS011;4452;50.756;4.472;2024-01-15T01:42:03;18.67;;;8.75;;
8831;SDS011;4452;50.756;4.472;2024-01-15T01:44:29;20.08;;;9.50;;
8831;SDS011;4452;50.756;4.472;2024-01-15T01:46:55;29.42;;;12.40;;
8831;SDS011;4452;50.756;4.472;2024-01-15T01:49:22;25.42;;;11.75;;
8831;SDS011;4452;50.756;4.472;2024-01-15T01:51:48;24.00;;;12.63;;
8831;SDS011;4452;50.756;4.472;2024-01-15T01:54:14;16.23;;;9.65;;
8831;SDS011;4452;50.756;4.472;2024-01-15T01:56:41;28.13;;;13.50;;
8831;SDS011;4452;50.756;4.472;2024-01-15T01:59:07;37.35;;;16.40;;
8831;SDS011;4452;50.756;4.472;2024-01-15T02:01:34;28.38;;;13.82;;
8831;SDS011;4452;50.756;4.472;2024-01-15T02:04:00;29.90;;;14.10;;
8831;SDS011;4452;50.756;4.472;2024-01-15T02:06:26;34.67;;;13.95;;
8831;SDS011;4452;50.756;4.472;2024-01-15T02:08:52;29.83;;;13.07;;
8831;SDS011;4452;50.756;4.472;2024-01-15T02:11:18;23.85;;;11.75;;
8831;SDS011;4452;50.756;4.472;2024-01-15T02:13:43;19.02;;;9.68;;
8831;SDS011;4452;50.756;4.472;2024-01-15T02:16:09;25.95;;;12.05;;
8831;SDS011;4452;50.756;4.472;2024-01-15T02:18:41;16.77;;;9.77;;
8831;SDS011;4452;50.756;4.472;2024-01-15T02:21:08;24.23;;;11.40;;
8831;SDS011;4452;50.756;4.472;2024-01-15T02:23:34;18.73;;;9.13;;
8831;SDS011;4452;50.756;4.472;2024-01-15T02:26:00;31.85;;;11.40;;
8831;SDS011;4452;50.756;4.472;2024-01-15T02:28:26;23.17;;;10.15;;
8831;SDS011;4452;50.756;4.472;2024-01-15T02:30:52;17.85;;;8.25;;
8831;SDS011;4452;50.756;4.472;2024-01-15T02:33:18;23.30;;;8.90;;
8831;SDS011;4452;50.756;4.472;2024-01-15T02:35:43;18.58;;;7.97;;
8831;SDS011;4452;50.756;4.472;2024-01-15T02:38:11;17.38;;;8.70;;
8831;SDS011;4452;50.756;4.472;2024-01-15T02:40:37;48.97;;;11.73;;
8831;SDS011;4452;50.756;4.472;2024-01-15T02:43:03;15.57;;;8.15;;
8831;SDS011;4452;50.756;4.472;2024-01-15T02:45:29;9.88;;;6.80;;
8831;SDS011;4452;50.756;4.472;2024-01-15T02:47:55;11.38;;;8.27;;
8831;SDS011;4452;50.756;4.472;2024-01-15T02:50:21;23.02;;;10.75;;
8831;SDS011;4452;50.756;4.472;2024-01-15T02:52:46;18.13;;;8.75;;
8831;SDS011;4452;50.756;4.472;2024-01-15T02:55:12;16.50;;;9.00;;
8831;SDS011;4452;50.756;4.472;2024-01-15T02:57:37;33.15;;;13.27;;
8831;SDS011;4452;50.756;4.472;2024-01-15T03:00:03;23.08;;;13.40;;
8831;SDS011;4452;50.756;4.472;2024-01-15T03:02:29;21.55;;;9.18;;
8831;SDS011;4452;50.756;4.472;2024-01-15T03:04:58;21.73;;;11.10;;
8831;SDS011;4452;50.756;4.472;2024-01-15T03:07:23;29.33;;;12.70;;
8831;SDS011;4452;50.756;4.472;2024-01-15T03:09:49;25.85;;;11.52;;
8831;SDS011;4452;50.756;4.472;2024-01-15T03:12:15;22.05;;;11.55;;
8831;SDS011;4452;50.756;4.472;2024-01-15T03:14:41;31.27;;;12.85;;
8831;SDS011;4452;50.756;4.472;2024-01-15T03:17:07;34.00;;;12.25;;
8831;SDS011;4452;50.756;4.472;2024-01-15T03:19:35;37.50;;;15.57;;
8831;SDS011;4452;50.756;4.472;2024-01-15T03:22:00;32.58;;;13.98;;
8831;SDS011;4452;50.756;4.472;2024-01-15T03:24:27;39.92;;;14.65;;
8831;SDS011;4452;50.756;4.472;2024-01-15T03:26:53;27.35;;;15.20;;
8831;SDS011;4452;50.756;4.472;2024-01-15T03:29:19;43.42;;;17.17;;
8831;SDS011;4452;50.756;4.472;2024-01-15T03:31:44;25.23;;;12.85;;
8831;SDS011;4452;50.756;4.472;2024-01-15T03:34:10;23.83;;;9.23;;
8831;SDS011;4452;50.756;4.472;2024-01-15T03:36:36;21.33;;;10.82;;
8831;SDS011;4452;50.756;4.472;2024-01-15T03:39:02;37.72;;;14.70;;
8831;SDS011;4452;50.756;4.472;2024-01-15T03:41:27;23.05;;;11.60;;
8831;SDS011;4452;50.756;4.472;2024-01-15T03:43:53;29.75;;;11.82;;
8831;SDS011;4452;50.756;4.472;2024-01-15T03:46:19;22.08;;;10.30;;
8831;SDS011;4452;50.756;4.472;2024-01-15T03:48:44;45.95;;;18.42;;
8831;SDS011;4452;50.756;4.472;2024-01-15T03:51:10;40.20;;;18.23;;
8831;SDS011;4452;50.756;4.472;2024-01-15T03:53:36;34.20;;;14.60;;
8831;SDS011;4452;50.756;4.472;2024-01-15T03:56:03;21.65;;;11.75;;
8831;SDS011;4452;50.756;4.472;2024-01-15T03:58:28;20.77;;;12.00;;
8831;SDS011;4452;50.756;4.472;2024-01-15T04:00:54;29.27;;;16.70;;
8831;SDS011;4452;50.756;4.472;2024-01-15T04:03:20;45.05;;;16.23;;
8831;SDS011;4452;50.756;4.472;2024-01-15T04:05:45;36.40;;;16.30;;
8831;SDS011;4452;50.756;4.472;2024-01-15T04:08:11;43.40;;;16.67;;
8831;SDS011;4452;50.756;4.472;2024-01-15T04:10:37;20.80;;;13.35;;
8831;SDS011;4452;50.756;4.472;2024-01-15T04:13:03;37.47;;;15.98;;
8831;SDS011;4452;50.756;4.472;2024-01-15T04:15:29;32.35;;;16.50;;
8831;SDS011;4452;50.756;4.472;2024-01-15T04:17:54;37.15;;;16.38;;
8831;SDS011;4452;50.756;4.472;2024-01-15T04:20:20;26.13;;;12.82;;
8831;SDS011;4452;50.756;4.472;2024-01-15T04:22:46;40.90;;;16.27;;
8831;SDS011;4452;50.756;4.472;2024-01-15T04:25:11;35.67;;;16.85;;
8831;SDS011;4452;50.756;4.472;2024-01-15T04:27:37;27.65;;;15.10;;
8831;SDS011;4452;50.756;4.472;2024-01-15T04:30:03;29.27;;;14.95;;
8831;SDS011;4452;50.756;4.472;2024-01-15T04:32:29;30.90;;;13.10;;
8831;SDS011;4452;50.756;4.472;2024-01-15T04:34:55;31.45;;;15.77;;
8831;SDS011;4452;50.756;4.472;2024-01-15T04:37:20;21.45;;;11.55;;
8831;SDS011;4452;50.756;4.472;2024-01-15T04:39:46;33.35;;;13.95;;
8831;SDS011;4452;50.756;4.472;2024-01-15T04:42:11;30.35;;;14.50;;
8831;SDS011;4452;50.756;4.472;2024-01-15T04:44:37;34.83;;;14.80;;
8831;SDS011;4452;50.756;4.472;2024-01-15T04:47:03;28.70;;;14.98;;
8831;SDS011;4452;50.756;4.472;2024-01-15T04:49:28;28.35;;;13.07;;
8831;SDS011;4452;50.756;4.472;2024-01-15T04:51:54;27.15;;;12.80;;
8831;SDS011;4452;50.756;4.472;2024-01-15T04:54:20;30.00;;;14.38;;
8831;SDS011;4452;50.756;4.472;2024-01-15T04:56:46;27.75;;;11.82;;
8831;SDS011;4452;50.756;4.472;2024-01-15T04:59:11;19.27;;;9.93;;
8831;SDS011;4452;50.756;4.472;2024-01-15T05:01:38;21.85;;;10.32;;
8831;SDS011;4452;50.756;4.472;2024-01-15T05:04:04;23.85;;;11.80;;
8831;SDS011;4452;50.756;4.472;2024-01-15T05:06:29;11.50;;;6.25;;
8831;SDS011;4452;50.756;4.472;2024-01-15T05:08:55;28.05;;;11.18;;
8831;SDS011;4452;50.756;4.472;2024-01-15T05:11:21;18.45;;;10.27;;
8831;SDS011;4452;50.756;4.472;2024-01-15T05:13:46;27.13;;;10.50;;
8831;SDS011;4452;50.756;4.472;2024-01-15T05:16:12;26.17;;;11.88;;
8831;SDS011;4452;50.756;4.472;2024-01-15T05:18:37;24.05;;;10.52;;
8831;SDS011;4452;50.756;4.472;2024-01-15T05:21:03;14.45;;;8.77;;
8831;SDS011;4452;50.756;4.472;2024-01-15T05:23:30;22.50;;;11.05;;
8831;SDS011;4452;50.756;4.472;2024-01-15T05:25:56;19.38;;;11.23;;
8831;SDS011;4452;50.756;4.472;2024-01-15T05:28:22;18.73;;;10.30;;
8831;SDS011;4452;50.756;4.472;2024-01-15T05:30:47;23.80;;;10.73;;
8831;SDS011;4452;50.756;4.472;2024-01-15T05:33:15;15.77;;;8.57;;
8831;SDS011;4452;50.756;4.472;2024-01-15T05:35:41;20.98;;;10.82;;
8831;SDS011;4452;50.756;4.472;2024-01-15T05:38:07;22.40;;;10.73;;
8831;SDS011;4452;50.756;4.472;2024-01-15T05:40:32;16.38;;;10.02;;
8831;SDS011;4452;50.756;4.472;2024-01-15T05:42:58;37.47;;;14.15;;
8831;SDS011;4452;50.756;4.472;2024-01-15T05:45:25;20.95;;;8.77;;
8831;SDS011;4452;50.756;4.472;2024-01-15T05:47:51;24.10;;;11.85;;
8831;SDS011;4452;50.756;4.472;2024-01-15T05:50:17;22.95;;;11.68;;
8831;SDS011;4452;50.756;4.472;2024-01-15T05:52:43;27.75;;;15.15;;
8831;SDS011;4452;50.756;4.472;2024-01-15T05:55:09;24.67;;;12.52;;
8831;SDS011;4452;50.756;4.472;2024-01-15T05:57:35;44.70;;;19.40;;
8831;SDS011;4452;50.756;4.472;2024-01-15T06:00:01;26.90;;;12.52;;
8831;SDS011;4452;50.756;4.472;2024-01-15T06:02:27;26.20;;;14.27;;
8831;SDS011;4452;50.756;4.472;2024-01-15T06:04:56;24.15;;;12.95;;
8831;SDS011;4452;50.756;4.472;2024-01-15T06:07:22;27.25;;;11.45;;
8831;SDS011;4452;50.756;4.472;2024-01-15T06:09:48;17.92;;;9.02;;
8831;SDS011;4452;50.756;4.472;2024-01-15T06:12:14;19.40;;;9.88;;
8831;SDS011;4452;50.756;4.472;2024-01-15T06:14:40;14.73;;;7.55;;
8831;SDS011;4452;50.756;4.472;2024-01-15T06:17:06;14.07;;;6.68;;
8831;SDS011;4452;50.756;4.472;2024-01-15T06:19:32;7.35;;;4.50;;
8831;SDS011;4452;50.756;4.472;2024-01-15T06:21:58;17.95;;;5.78;;
8831;SDS011;4452;50.756;4.472;2024-01-15T06:24:23;9.48;;;6.05;;
8831;SDS011;4452;50.756;4.472;2024-01-15T06:26:49;17.73;;;7.18;;
8831;SDS011;4452;50.756;4.472;2024-01-15T06:29:14;12.38;;;7.32;;
8831;SDS011;4452;50.756;4.472;2024-01-15T06:31:40;18.63;;;7.05;;
8831;SDS011;4452;50.756;4.472;2024-01-15T06:34:06;18.30;;;8.10;;
8831;SDS011;4452;50.756;4.472;2024-01-15T06:36:31;10.82;;;5.88;;
8831;SDS011;4452;50.756;4.472;2024-01-15T06:38:57;13.82;;;6.75;;
8831;SDS011;4452;50.756;4.472;2024-01-15T06:41:22;19.55;;;8.65;;
8831;SDS011;4452;50.756;4.472;2024-01-15T06:43:53;14.70;;;7.95;;
8831;SDS011;4452;50.756;4.472;2024-01-15T06:46:22;33.05;;;12.95;;
8831;SDS011;4452;50.756;4.472;2024-01-15T06:48:48;13.88;;;7.82;;
8831;SDS011;4452;50.756;4.472;2024-01-15T06:51:14;17.52;;;10.85;;
8831;SDS011;4452;50.756;4.472;2024-01-15T06:53:41;24.58;;;9.63;;
8831;SDS011;4452;50.756;4.472;2024-01-15T06:56:06;21.70;;;11.20;;
8831;SDS011;4452;50.756;4.472;2024-01-15T06:58:32;17.05;;;8.30;;
8831;SDS011;4452;50.756;4.472;2024-01-15T07:00:58;19.40;;;10.65;;
8831;SDS011;4452;50.756;4.472;2024-01-15T07:03:23;10.43;;;7.20;;
8831;SDS011;4452;50.756;4.472;2024-01-15T07:05:49;37.10;;;12.15;;
8831;SDS011;4452;50.756;4.472;2024-01-15T07:08:15;31.27;;;14.30;;
8831;SDS011;4452;50.756;4.472;2024-01-15T07:10:40;29.65;;;14.55;;
8831;SDS011;4452;50.756;4.472;2024-01-15T07:13:06;20.30;;;11.07;;
8831;SDS011;4452;50.756;4.472;2024-01-15T07:15:32;26.58;;;11.38;;
8831;SDS011;4452;50.756;4.472;2024-01-15T07:17:58;23.25;;;11.15;;
8831;SDS011;4452;50.756;4.472;2024-01-15T07:20:24;15.65;;;9.70;;
8831;SDS011;4452;50.756;4.472;2024-01-15T07:22:50;19.38;;;10.05;;
8831;SDS011;4452;50.756;4.472;2024-01-15T07:25:16;15.82;;;10.35;;
8831;SDS011;4452;50.756;4.472;2024-01-15T07:27:42;20.23;;;9.35;;
8831;SDS011;4452;50.756;4.472;2024-01-15T07:30:09;24.80;;;11.43;;
8831;SDS011;4452;50.756;4.472;2024-01-15T07:32:38;21.67;;;12.13;;
8831;SDS011;4452;50.756;4.472;2024-01-15T07:35:04;14.63;;;7.80;;
8831;SDS011;4452;50.756;4.472;2024-01-15T07:37:30;26.00;;;12.85;;
8831;SDS011;4452;50.756;4.472;2024-01-15T07:39:56;21.60;;;10.82;;
8831;SDS011;4452;50.756;4.472;2024-01-15T07:42:22;25.42;;;12.88;;
8831;SDS011;4452;50.756;4.472;2024-01-15T07:44:48;25.55;;;10.32;;
8831;SDS011;4452;50.756;4.472;2024-01-15T07:47:13;19.17;;;10.57;;
8831;SDS011;4452;50.756;4.472;2024-01-15T07:49:39;23.95;;;10.70;;
8831;SDS011;4452;50.756;4.472;2024-01-15T07:52:04;16.17;;;8.95;;
8831;SDS011;4452;50.756;4.472;2024-01-15T07:54:31;17.60;;;8.32;;
8831;SDS011;4452;50.756;4.472;2024-01-15T07:56:57;19.45;;;10.68;;
8831;SDS011;4452;50.756;4.472;2024-01-15T07:59:28;34.72;;;10.07;;
8831;SDS011;4452;50.756;4.472;2024-01-15T08:01:55;13.35;;;7.38;;
8831;SDS011;4452;50.756;4.472;2024-01-15T08:04:20;14.60;;;8.82;;
8831;SDS011;4452;50.756;4.472;2024-01-15T08:06:49;16.58;;;8.43;;
8831;SDS011;4452;50.756;4.472;2024-01-15T08:09:14;17.55;;;7.35;;
8831;SDS011;4452;50.756;4.472;2024-01-15T08:11:40;25.02;;;7.40;;
8831;SDS011;4452;50.756;4.472;2024-01-15T08:14:07;18.67;;;8.13;;
8831;SDS011;4452;50.756;4.472;2024-01-15T08:16:33;20.48;;;8.68;;
8831;SDS011;4452;50.756;4.472;2024-01-15T08:18:59;7.95;;;4.43;;
8831;SDS011;4452;50.756;4.472;2024-01-15T08:21:25;8.93;;;4.95;;
8831;SDS011;4452;50.756;4.472;2024-01-15T08:23:53;8.32;;;5.28;;
8831;SDS011;4452;50.756;4.472;2024-01-15T08:26:19;8.90;;;3.65;;
8831;SDS011;4452;50.756;4.472;2024-01-15T08:28:44;22.63;;;6.50;;
8831;SDS011;4452;50.756;4.472;2024-01-15T08:31:10;10.82;;;5.00;;
8831;SDS011;4452;50.756;4.472;2024-01-15T08:33:35;8.75;;;5.10;;
8831;SDS011;4452;50.756;4.472;2024-01-15T08:36:01;16.95;;;6.00;;
8831;SDS011;4452;50.756;4.472;2024-01-15T08:38:27;10.75;;;5.28;;
8831;SDS011;4452;50.756;4.472;2024-01-15T08:40:53;10.65;;;5.45;;
8831;SDS011;4452;50.756;4.472;2024-01-15T08:43:21;8.88;;;4.47;;
8831;SDS011;4452;50.756;4.472;2024-01-15T08:45:47;10.90;;;5.55;;
8831;SDS011;4452;50.756;4.472;2024-01-15T08:48:13;9.23;;;4.30;;
8831;SDS011;4452;50.756;4.472;2024-01-15T08:50:39;12.80;;;4.78;;
8831;SDS011;4452;50.756;4.472;2024-01-15T08:53:04;11.80;;;4.70;;
8831;SDS011;4452;50.756;4.472;2024-01-15T08:55:30;16.75;;;3.72;;
8831;SDS011;4452;50.756;4.472;2024-01-15T08:57:56;8.70;;;4.15;;
8831;SDS011;4452;50.756;4.472;2024-01-15T09:00:21;8.27;;;3.38;;
8831;SDS011;4452;50.756;4.472;2024-01-15T09:02:47;8.55;;;3.65;;
8831;SDS011;4452;50.756;4.472;2024-01-15T09:05:13;9.50;;;3.63;;
8831;SDS011;4452;50.756;4.472;2024-01-15T09:07:38;11.43;;;3.55;;
8831;SDS011;4452;50.756;4.472;2024-01-15T09:10:04;7.38;;;3.63;;
8831;SDS011;4452;50.756;4.472;2024-01-15T09:12:30;10.27;;;4.03;;
8831;SDS011;4452;50.756;4.472;2024-01-15T09:14:56;9.68;;;3.85;;
8831;SDS011;4452;50.756;4.472;2024-01-15T09:17:21;9.32;;;4.07;;
8831;SDS011;4452;50.756;4.472;2024-01-15T09:19:48;12.80;;;3.60;;
8831;SDS011;4452;50.756;4.472;2024-01-15T09:22:14;11.45;;;3.55;;
8831;SDS011;4452;50.756;4.472;2024-01-15T09:24:43;14.05;;;3.97;;
8831;SDS011;4452;50.756;4.472;2024-01-15T09:27:11;7.32;;;3.53;;
8831;SDS011;4452;50.756;4.472;2024-01-15T09:29:37;11.43;;;3.55;;
8831;SDS011;4452;50.756;4.472;2024-01-15T09:32:05;13.70;;;3.95;;
8831;SDS011;4452;50.756;4.472;2024-01-15T09:34:32;12.32;;;3.85;;
8831;SDS011;4452;50.756;4.472;2024-01-15T09:36:58;7.28;;;3.50;;
8831;SDS011;4452;50.756;4.472;2024-01-15T09:39:25;5.95;;;3.40;;
8831;SDS011;4452;50.756;4.472;2024-01-15T09:41:52;4.75;;;2.70;;
8831;SDS011;4452;50.756;4.472;2024-01-15T09:44:18;7.90;;;3.65;;
8831;SDS011;4452;50.756;4.472;2024-01-15T09:46:45;7.68;;;3.65;;
8831;SDS011;4452;50.756;4.472;2024-01-15T09:49:11;6.07;;;2.67;;
8831;SDS011;4452;50.756;4.472;2024-01-15T09:51:37;6.32;;;3.42;;
8831;SDS011;4452;50.756;4.472;2024-01-15T09:54:04;3.63;;;2.97;;
8831;SDS011;4452;50.756;4.472;2024-01-15T09:56:30;12.38;;;3.60;;
8831;SDS011;4452;50.756;4.472;2024-01-15T09:58:56;8.48;;;3.70;;
8831;SDS011;4452;50.756;4.472;2024-01-15T10:01:23;7.53;;;3.30;;
8831;SDS011;4452;50.756;4.472;2024-01-15T10:03:49;14.70;;;3.60;;
8831;SDS011;4452;50.756;4.472;2024-01-15T10:06:15;11.90;;;3.60;;
8831;SDS011;4452;50.756;4.472;2024-01-15T10:08:51;4.75;;;3.10;;
8831;SDS011;4452;50.756;4.472;2024-01-15T10:11:16;11.38;;;4.20;;
8831;SDS011;4452;50.756;4.472;2024-01-15T10:13:48;5.93;;;3.42;;
8831;SDS011;4452;50.756;4.472;2024-01-15T10:16:18;8.07;;;2.97;;
8831;SDS011;4452;50.756;4.472;2024-01-15T10:18:44;5.82;;;2.75;;
8831;SDS011;4452;50.756;4.472;2024-01-15T10:21:10;4.20;;;3.45;;
8831;SDS011;4452;50.756;4.472;2024-01-15T10:23:36;8.13;;;3.10;;
8831;SDS011;4452;50.756;4.472;2024-01-15T10:26:02;6.25;;;3.30;;
8831;SDS011;4452;50.756;4.472;2024-01-15T10:28:29;4.82;;;3.33;;
8831;SDS011;4452;50.756;4.472;2024-01-15T10:30:57;6.65;;;2.67;;
8831;SDS011;4452;50.756;4.472;2024-01-15T10:33:24;8.40;;;3.15;;
8831;SDS011;4452;50.756;4.472;2024-01-15T10:35:53;14.07;;;4.38;;
8831;SDS011;4452;50.756;4.472;2024-01-15T10:38:23;5.45;;;2.90;;
8831;SDS011;4452;50.756;4.472;2024-01-15T10:40:52;9.80;;;3.17;;
8831;SDS011;4452;50.756;4.472;2024-01-15T10:43:18;5.03;;;3.08;;
8831;SDS011;4452;50.756;4.472;2024-01-15T10:45:44;6.97;;;3.42;;
8831;SDS011;4452;50.756;4.472;2024-01-15T10:48:11;6.90;;;3.10;;
8831;SDS011;4452;50.756;4.472;2024-01-15T10:50:37;6.90;;;4.88;;
8831;SDS011;4452;50.756;4.472;2024-01-15T10:53:06;10.02;;;3.55;;
8831;SDS011;4452;50.756;4.472;2024-01-15T10:55:38;3.30;;;3.00;;
8831;SDS011;4452;50.756;4.472;2024-01-15T10:58:06;8.38;;;3.70;;
8831;SDS011;4452;50.756;4.472;2024-01-15T11:00:36;10.15;;;4.15;;
8831;SDS011;4452;50.756;4.472;2024-01-15T11:03:03;8.70;;;2.97;;
8831;SDS011;4452;50.756;4.472;2024-01-15T11:05:34;6.15;;;3.08;;
8831;SDS011;4452;50.756;4.472;2024-01-15T11:08:05;9.38;;;3.17;;
8831;SDS011;4452;50.756;4.472;2024-01-15T11:10:47;8.25;;;3.40;;
8831;SDS011;4452;50.756;4.472;2024-01-15T11:16:05;9.02;;;3.50;;
8831;SDS011;4452;50.756;4.472;2024-01-15T11:18:34;8.15;;;3.38;;
8831;SDS011;4452;50.756;4.472;2024-01-15T11:23:45;6.50;;;2.92;;
8831;SDS011;4452;50.756;4.472;2024-01-15T11:29:03;6.30;;;2.97;;
8831;SDS011;4452;50.756;4.472;2024-01-15T11:31:56;4.50;;;3.53;;
8831;SDS011;4452;50.756;4.472;2024-01-15T11:34:15;5.22;;;2.90;;
8831;SDS011;4452;50.756;4.472;2024-01-15T11:40:00;4.03;;;3.10;;
8831;SDS011;4452;50.756;4.472;2024-01-15T11:42:07;2.72;;;2.42;;
8831;SDS011;4452;50.756;4.472;2024-01-15T11:44:34;3.78;;;2.95;;
8831;SDS011;4452;50.756;4.472;2024-01-15T11:47:06;9.73;;;3.50;;
8831;SDS011;4452;50.756;4.472;2024-01-15T11:52:37;7.05;;;2.75;;
8831;SDS011;4452;50.756;4.472;2024-01-15T12:00:17;3.55;;;2.53;;
8831;SDS011;4452;50.756;4.472;2024-01-15T12:02:43;7.45;;;2.70;;
8831;SDS011;4452;50.756;4.472;2024-01-15T12:05:11;9.77;;;3.45;;
8831;SDS011;4452;50.756;4.472;2024-01-15T12:07:48;19.85;;;3.85;;
8831;SDS011;4452;50.756;4.472;2024-01-15T12:10:18;5.28;;;4.25;;
8831;SDS011;4452;50.756;4.472;2024-01-15T12:12:51;9.38;;;4.10;;
8831;SDS011;4452;50.756;4.472;2024-01-15T12:15:19;12.00;;;4.72;;
8831;SDS011;4452;50.756;4.472;2024-01-15T12:17:45;5.68;;;4.38;;
8831;SDS011;4452;50.756;4.472;2024-01-15T12:20:12;10.52;;;4.50;;
8831;SDS011;4452;50.756;4.472;2024-01-15T12:22:38;4.93;;;3.92;;
8831;SDS011;4452;50.756;4.472;2024-01-15T12:25:04;12.50;;;4.30;;
8831;SDS011;4452;50.756;4.472;2024-01-15T12:27:30;7.80;;;3.70;;
8831;SDS011;4452;50.756;4.472;2024-01-15T12:29:57;5.28;;;3.42;;
8831;SDS011;4452;50.756;4.472;2024-01-15T12:32:23;6.82;;;4.05;;
8831;SDS011;4452;50.756;4.472;2024-01-15T12:34:49;3.38;;;3.05;;
8831;SDS011;4452;50.756;4.472;2024-01-15T12:37:17;3.53;;;3.17;;
8831;SDS011;4452;50.756;4.472;2024-01-15T12:39:44;4.72;;;3.50;;
8831;SDS011;4452;50.756;4.472;2024-01-15T12:42:10;6.03;;;3.38;;
8831;SDS011;4452;50.756;4.472;2024-01-15T12:44:36;5.82;;;2.70;;
8831;SDS011;4452;50.756;4.472;2024-01-15T12:47:04;11.18;;;2.97;;
8831;SDS011;4452;50.756;4.472;2024-01-15T12:49:30;6.10;;;2.63;;
8831;SDS011;4452;50.756;4.472;2024-01-15T12:51:56;10.15;;;2.45;;
8831;SDS011;4452;50.756;4.472;2024-01-15T12:54:22;4.57;;;2.35;;
8831;SDS011;4452;50.756;4.472;2024-01-15T12:56:49;6.07;;;2.45;;
8831;SDS011;4452;50.756;4.472;2024-01-15T12:59:15;5.55;;;2.65;;
8831;SDS011;4452;50.756;4.472;2024-01-15T13:01:41;6.72;;;3.03;;
8831;SDS011;4452;50.756;4.472;2024-01-15T13:04:07;3.88;;;2.00;;
8831;SDS011;4452;50.756;4.472;2024-01-15T13:06:33;8.30;;;3.13;;
8831;SDS011;4452;50.756;4.472;2024-01-15T13:09:03;4.10;;;2.30;;
8831;SDS011;4452;50.756;4.472;2024-01-15T13:11:32;2.63;;;2.42;;
8831;SDS011;4452;50.756;4.472;2024-01-15T13:13:58;3.78;;;2.47;;
8831;SDS011;4452;50.756;4.472;2024-01-15T13:16:24;5.63;;;2.55;;
8831;SDS011;4452;50.756;4.472;2024-01-15T13:18:53;6.38;;;2.25;;
8831;SDS011;4452;50.756;4.472;2024-01-15T13:21:19;6.43;;;2.92;;
8831;SDS011;4452;50.756;4.472;2024-01-15T13:23:45;6.43;;;2.47;;
8831;SDS011;4452;50.756;4.472;2024-01-15T13:26:11;3.75;;;2.70;;
8831;SDS011;4452;50.756;4.472;2024-01-15T13:28:40;17.30;;;3.05;;
8831;SDS011;4452;50.756;4.472;2024-01-15T13:31:11;10.20;;;3.55;;
8831;SDS011;4452;50.756;4.472;2024-01-15T13:33:39;5.05;;;2.67;;
8831;SDS011;4452;50.756;4.472;2024-01-15T13:36:07;10.43;;;2.88;;
8831;SDS011;4452;50.756;4.472;2024-01-15T13:38:37;5.38;;;2.70;;
8831;SDS011;4452;50.756;4.472;2024-01-15T13:41:05;10.43;;;2.40;;
8831;SDS011;4452;50.756;4.472;2024-01-15T13:43:31;6.53;;;2.70;;
8831;SDS011;4452;50.756;4.472;2024-01-15T13:45:57;8.88;;;3.05;;
8831;SDS011;4452;50.756;4.472;2024-01-15T13:48:23;14.80;;;3.75;;
8831;SDS011;4452;50.756;4.472;2024-01-15T13:50:49;12.65;;;2.65;;
8831;SDS011;4452;50.756;4.472;2024-01-15T13:53:16;9.25;;;2.67;;
8831;SDS011;4452;50.756;4.472;2024-01-15T13:55:42;9.95;;;2.72;;
8831;SDS011;4452;50.756;4.472;2024-01-15T13:58:07;8.75;;;2.88;;
8831;SDS011;4452;50.756;4.472;2024-01-15T14:00:33;5.95;;;2.90;;
8831;SDS011;4452;50.756;4.472;2024-01-15T14:02:59;7.53;;;2.92;;
8831;SDS011;4452;50.756;4.472;2024-01-15T14:05:25;2.88;;;2.33;;
8831;SDS011;4452;50.756;4.472;2024-01-15T14:07:51;5.63;;;2.45;;
8831;SDS011;4452;50.756;4.472;2024-01-15T14:10:17;6.68;;;2.85;;
8831;SDS011;4452;50.756;4.472;2024-01-15T14:12:42;6.03;;;3.05;;
8831;SDS011;4452;50.756;4.472;2024-01-15T14:15:08;6.55;;;2.60;;
8831;SDS011;4452;50.756;4.472;2024-01-15T14:17:34;7.35;;;3.25;;
8831;SDS011;4452;50.756;4.472;2024-01-15T14:19:59;7.07;;;3.58;;
8831;SDS011;4452;50.756;4.472;2024-01-15T14:22:25;5.43;;;3.08;;
8831;SDS011;4452;50.756;4.472;2024-01-15T14:24:52;6.22;;;3.58;;
8831;SDS011;4452;50.756;4.472;2024-01-15T14:27:19;12.05;;;4.60;;
8831;SDS011;4452;50.756;4.472;2024-01-15T14:29:44;16.50;;;3.95;;
8831;SDS011;4452;50.756;4.472;2024-01-15T14:32:11;10.90;;;3.58;;
8831;SDS011;4452;50.756;4.472;2024-01-15T14:34:37;11.50;;;4.03;;
8831;SDS011;4452;50.756;4.472;2024-01-15T14:37:03;11.07;;;4.00;;
8831;SDS011;4452;50.756;4.472;2024-01-15T14:39:28;8.13;;;3.58;;
8831;SDS011;4452;50.756;4.472;2024-01-15T14:41:54;4.28;;;2.85;;
8831;SDS011;4452;50.756;4.472;2024-01-15T14:44:20;5.65;;;2.83;;
8831;SDS011;4452;50.756;4.472;2024-01-15T14:46:46;8.07;;;2.85;;
8831;SDS011;4452;50.756;4.472;2024-01-15T14:49:12;5.53;;;2.50;;
8831;SDS011;4452;50.756;4.472;2024-01-15T14:51:37;12.02;;;4.30;;
8831;SDS011;4452;50.756;4.472;2024-01-15T14:54:03;9.50;;;2.90;;
8831;SDS011;4452;50.756;4.472;2024-01-15T14:56:28;8.43;;;3.78;;
8831;SDS011;4452;50.756;4.472;2024-01-15T14:58:54;6.47;;;3.30;;
8831;SDS011;4452;50.756;4.472;2024-01-15T15:01:20;6.63;;;3.50;;
8831;SDS011;4452;50.756;4.472;2024-01-15T15:03:47;5.03;;;2.90;;
8831;SDS011;4452;50.756;4.472;2024-01-15T15:06:13;6.45;;;3.42;;
8831;SDS011;4452;50.756;4.472;2024-01-15T15:08:39;10.23;;;3.67;;
8831;SDS011;4452;50.756;4.472;2024-01-15T15:11:06;3.53;;;2.67;;
8831;SDS011;4452;50.756;4.472;2024-01-15T15:13:32;3.28;;;2.60;;
8831;SDS011;4452;50.756;4.472;2024-01-15T15:15:58;7.13;;;2.63;;